East TN State Univ, Tennessee
Current Conditions -  °F | °C
As of 3:53 AM on Monday 24 Nov 2014 (Local Time) from KTRI Reporting Station
Clear Clear  
Wind Chill: 14°   Ceiling: Unl
Heat Index: 14°   Visibility: 10mi
Dew Point: 10°   Wind: 5mph
Humidity: 77%   Direction: 180°S
Pressure: 29.64"   Gusts: NA
Location:  36.3658°N, 82.4151°W
Report Text: KTRI 240853Z 18004KT 10SM CLR 14/10 A2964 RMK AO2 SLP019 T01390100 50006
Loading
Personal Weather Stations






























Interactive Weather Map New forecast layout! Learn more

10-Day Weather Forecast

Advertisements
Track Severe Weather on mobile